createdAt,value
2022-08-05T00:02:22.143Z,100463.84
2022-08-05T00:07:59.099Z,100453.16
2022-08-05T00:12:56.178Z,100462.34
2022-08-05T00:17:59.748Z,100462.81
2022-08-05T00:23:13.175Z,100451.53
2022-08-05T00:28:16.891Z,100442.69
2022-08-05T00:34:55.195Z,100446.50
2022-08-05T00:38:56.327Z,100444.06
2022-08-05T00:44:02.951Z,100455.16
2022-08-05T00:49:05.846Z,100450.81
2022-08-05T00:54:12.712Z,100440.44
2022-08-05T00:59:15.460Z,100448.22
2022-08-05T01:04:19.909Z,100437.94
2022-08-05T01:09:24.052Z,100440.53
2022-08-05T01:14:49.587Z,100437.13
2022-08-05T01:20:01.764Z,100425.97
2022-08-05T01:25:40.726Z,100430.31
2022-08-05T01:30:55.475Z,100425.25
2022-08-05T01:35:59.824Z,100435.63
2022-08-05T01:41:04.056Z,100441.72
2022-08-05T01:46:16.298Z,100433.16
2022-08-05T01:51:36.246Z,100440.97
2022-08-05T01:58:10.380Z,100435.00
2022-08-05T02:02:07.459Z,100441.06
2022-08-05T02:07:21.830Z,100432.50
2022-08-05T02:12:33.984Z,100437.66
2022-08-05T02:18:28.652Z,100437.69
2022-08-05T02:23:09.804Z,100434.28
2022-08-05T02:28:17.019Z,100417.94
2022-08-05T02:33:38.923Z,100423.94
2022-08-05T02:38:42.478Z,100421.41
2022-08-05T02:44:05.932Z,100430.84
2022-08-05T02:49:17.840Z,100403.28
2022-08-05T02:54:35.617Z,100414.47
2022-08-05T02:59:50.394Z,100428.25
2022-08-05T03:04:58.139Z,100417.00
2022-08-05T03:10:00.961Z,100422.09
2022-08-05T03:15:09.173Z,100415.19
2022-08-05T03:20:22.649Z,100412.50
2022-08-05T03:26:30.368Z,100420.97
2022-08-05T03:31:56.990Z,100406.28
2022-08-05T03:37:01.506Z,100404.44
2022-08-05T03:42:05.073Z,100387.16
2022-08-05T03:47:10.990Z,100399.03
2022-08-05T03:52:37.776Z,100406.66
2022-08-05T03:58:11.181Z,100396.09
2022-08-05T04:03:26.695Z,100397.63
2022-08-05T04:08:41.867Z,100405.19
2022-08-05T04:13:53.308Z,100393.81
2022-08-05T04:18:57.873Z,100391.84
2022-08-05T04:24:06.723Z,100390.69
2022-08-05T04:29:12.239Z,100380.19
2022-08-05T04:34:31.474Z,100387.75
2022-08-05T04:39:36.105Z,100391.69
2022-08-05T04:44:39.049Z,100377.69
2022-08-05T04:50:01.689Z,100391.97
2022-08-05T04:55:14.809Z,100391.63
2022-08-05T05:00:18.275Z,100374.94
2022-08-05T05:05:29.110Z,100382.34
2022-08-05T05:10:34.296Z,100377.81
2022-08-05T05:16:01.924Z,100377.25
2022-08-05T05:21:08.752Z,100383.94
2022-08-05T05:26:12.816Z,100372.16
2022-08-05T05:31:15.741Z,100379.31
2022-08-05T05:36:21.571Z,100372.66
2022-08-05T05:41:40.722Z,100372.97
2022-08-05T05:46:47.824Z,100381.66
2022-08-05T05:52:05.984Z,100366.56
2022-08-05T05:57:13.449Z,100372.63
2022-08-05T06:02:36.648Z,100379.41
2022-08-05T06:08:03.985Z,100364.25
2022-08-05T06:13:27.955Z,100353.97
2022-08-05T06:18:43.394Z,100362.91
2022-08-05T06:23:49.871Z,100349.28
2022-08-05T06:29:03.257Z,100344.66
2022-08-05T06:36:07.011Z,100359.47
2022-08-05T06:48:11.530Z,100342.72
2022-08-05T06:52:58.777Z,100332.88
2022-08-05T06:58:30.230Z,100332.47
2022-08-05T07:03:32.855Z,100339.94
2022-08-05T07:08:40.140Z,100342.34
2022-08-05T07:14:04.286Z,100329.25
2022-08-05T07:19:07.256Z,100341.44
2022-08-05T07:24:11.493Z,100319.22
2022-08-05T07:29:14.812Z,100317.66
2022-08-05T07:34:21.512Z,100336.31
2022-08-05T07:40:26.043Z,100324.44
2022-08-05T07:44:53.873Z,100332.31
2022-08-05T07:49:56.631Z,100318.88
2022-08-05T07:55:01.664Z,100314.72
2022-08-05T08:00:11.572Z,100320.81
2022-08-05T08:05:14.670Z,100327.25
2022-08-05T08:10:20.528Z,100325.56
2022-08-05T08:16:33.927Z,100316.03
2022-08-05T08:21:02.872Z,100307.88
2022-08-05T08:26:06.755Z,100322.03
2022-08-05T08:31:14.599Z,100312.09
2022-08-05T08:36:37.645Z,100311.84
2022-08-05T08:42:15.286Z,100314.66
2022-08-05T08:48:06.054Z,100315.69
2022-08-05T08:53:08.021Z,100317.44
2022-08-05T08:58:43.663Z,100324.97
2022-08-05T09:03:57.475Z,100318.06
2022-08-05T09:09:02.473Z,100318.25
2022-08-05T09:14:53.929Z,100319.38
2022-08-05T09:19:36.627Z,100315.59
2022-08-05T09:25:13.666Z,100310.88
2022-08-05T09:30:25.916Z,100314.66
2022-08-05T09:35:29.359Z,100306.50
2022-08-05T09:40:38.462Z,100312.34
2022-08-05T09:46:06.225Z,100307.97
2022-08-05T09:51:15.225Z,100298.16
2022-08-05T09:56:30.220Z,100302.53
2022-08-05T10:01:34.762Z,100307.28
2022-08-05T10:06:40.830Z,100302.66
2022-08-05T10:11:44.948Z,100301.66
2022-08-05T10:16:52.831Z,100292.03
2022-08-05T10:21:56.378Z,100300.03
2022-08-05T10:27:01.271Z,100307.41
2022-08-05T10:32:53.124Z,100288.41
2022-08-05T10:37:40.363Z,100299.63
2022-08-05T10:42:51.532Z,100292.63
2022-08-05T10:48:29.765Z,100296.47
2022-08-05T10:53:38.447Z,100306.88
2022-08-05T10:59:12.616Z,100298.88
2022-08-05T11:04:30.830Z,100298.06
2022-08-05T11:09:48.191Z,100277.53
2022-08-05T11:15:20.531Z,100293.72
2022-08-05T11:20:44.296Z,100304.72
2022-08-05T11:26:09.026Z,100287.56
2022-08-05T11:31:12.069Z,100290.66
2022-08-05T11:36:52.933Z,100288.03
2022-08-05T11:42:02.401Z,100294.91
2022-08-05T11:47:10.986Z,100294.28
2022-08-05T11:52:31.145Z,100280.44
2022-08-05T11:58:08.639Z,100300.00
2022-08-05T12:02:56.866Z,100286.13
2022-08-05T12:08:10.444Z,100298.28
2022-08-05T12:13:18.909Z,100289.81
2022-08-05T12:18:40.157Z,100291.53
2022-08-05T12:24:08.311Z,100292.34
2022-08-05T12:29:16.194Z,100293.72
2022-08-05T12:34:24.007Z,100282.22
2022-08-05T12:39:37.186Z,100293.47
2022-08-05T12:44:42.019Z,100287.38
2022-08-05T12:50:04.198Z,100282.88
2022-08-05T12:55:22.248Z,100282.81
2022-08-05T13:02:02.672Z,100283.41
2022-08-05T13:05:51.479Z,100288.09
2022-08-05T13:11:00.923Z,100294.72
2022-08-05T13:16:04.055Z,100275.78
2022-08-05T13:21:09.203Z,100278.34
2022-08-05T13:26:12.341Z,100275.44
2022-08-05T13:31:16.563Z,100277.81
2022-08-05T13:36:19.341Z,100283.22
2022-08-05T13:41:23.903Z,100283.03
2022-08-05T13:47:01.977Z,100272.91
2022-08-05T13:52:15.043Z,100283.72
2022-08-05T13:57:17.963Z,100284.66
2022-08-05T14:02:26.491Z,100292.03
2022-08-05T14:08:01.115Z,100289.63
2022-08-05T14:13:01.809Z,100294.50
2022-08-05T14:18:05.339Z,100292.69
2022-08-05T14:23:08.105Z,100290.13
2022-08-05T14:28:22.786Z,100287.09
2022-08-05T14:33:32.484Z,100304.66
2022-08-05T14:38:54.260Z,100314.00
2022-08-05T14:44:01.930Z,100321.38
2022-08-05T14:49:12.042Z,100310.56
2022-08-05T14:54:28.544Z,100316.16
2022-08-05T14:59:35.340Z,100319.94
2022-08-05T15:04:38.835Z,100311.50
2022-08-05T15:09:51.531Z,100322.94
2022-08-05T15:14:58.315Z,100317.13
2022-08-05T15:20:01.101Z,100318.97
2022-08-05T15:25:11.639Z,100325.94
2022-08-05T15:30:16.750Z,100314.00
2022-08-05T15:35:21.768Z,100319.25
2022-08-05T15:41:01.807Z,100315.91
2022-08-05T15:45:47.938Z,100322.03
2022-08-05T15:51:06.015Z,100319.50
2022-08-05T15:56:13.165Z,100327.31
2022-08-05T16:01:20.059Z,100323.91
2022-08-05T16:06:23.833Z,100336.00
2022-08-05T16:11:42.796Z,100334.31
2022-08-05T16:16:47.548Z,100330.09
2022-08-05T16:21:58.380Z,100338.72
2022-08-05T16:27:04.294Z,100324.97
2022-08-05T16:32:10.242Z,100337.06
2022-08-05T16:38:00.527Z,100335.34
2022-08-05T16:42:37.730Z,100327.63
2022-08-05T16:47:53.428Z,100334.50
2022-08-05T16:53:01.670Z,100335.38
2022-08-05T16:58:15.318Z,100334.56
2022-08-05T17:03:22.829Z,100337.13
2022-08-05T17:08:35.771Z,100330.25
2022-08-05T17:13:41.416Z,100335.41
2022-08-05T17:18:45.037Z,100335.41
2022-08-05T17:24:05.509Z,100336.22
2022-08-05T17:29:10.839Z,100344.81
2022-08-05T17:34:13.673Z,100343.91
2022-08-05T17:39:24.487Z,100339.59
2022-08-05T17:44:36.405Z,100337.03
2022-08-05T17:49:59.598Z,100340.44
2022-08-05T17:55:03.006Z,100329.25
2022-08-05T18:00:06.915Z,100331.81
2022-08-05T18:05:10.081Z,100335.31
2022-08-05T18:10:21.087Z,100335.22
2022-08-05T18:15:27.148Z,100333.50
2022-08-05T18:20:32.416Z,100334.38
2022-08-05T18:25:35.942Z,100338.63
2022-08-05T18:30:38.986Z,100333.53
2022-08-05T18:36:01.086Z,100318.09
2022-08-05T18:41:56.683Z,100305.22
2022-08-05T18:46:30.625Z,100324.13
2022-08-05T18:52:04.883Z,100336.94
2022-08-05T18:57:15.316Z,100326.63
2022-08-05T19:02:28.037Z,100330.00
2022-08-05T19:07:46.087Z,100338.47
2022-08-05T19:12:49.977Z,100328.03
2022-08-05T19:18:08.838Z,100327.19
2022-08-05T19:24:06.052Z,100322.19
2022-08-05T19:28:35.486Z,100319.69
2022-08-05T19:33:40.599Z,100317.13
2022-08-05T19:38:50.834Z,100325.75
2022-08-05T19:44:06.255Z,100321.50
2022-08-05T19:49:16.984Z,100324.94
2022-08-05T19:54:28.424Z,100312.06
2022-08-05T19:59:55.916Z,100312.91
2022-08-05T20:04:58.432Z,100303.44
2022-08-05T20:10:02.832Z,100301.69
2022-08-05T20:15:14.580Z,100299.03
2022-08-05T20:20:17.355Z,100300.63
2022-08-05T20:25:20.383Z,100307.34
2022-08-05T20:30:27.927Z,100301.25
2022-08-05T20:35:31.462Z,100295.16
2022-08-05T20:40:35.850Z,100302.81
2022-08-05T20:45:56.592Z,100295.03
2022-08-05T20:51:00.154Z,100293.16
2022-08-05T20:56:10.949Z,100289.66
2022-08-05T21:01:13.763Z,100286.19
2022-08-05T21:06:28.374Z,100291.25
2022-08-05T21:12:06.884Z,100295.50
2022-08-05T21:16:55.141Z,100294.59
2022-08-05T21:21:57.928Z,100293.69
2022-08-05T21:27:00.773Z,100286.94
2022-08-05T21:32:04.700Z,100286.06
2022-08-05T21:37:08.647Z,100280.81
2022-08-05T21:42:41.035Z,100273.16
2022-08-05T21:47:55.984Z,100275.78
2022-08-05T21:53:04.692Z,100269.69
2022-08-05T21:58:19.979Z,100273.03
2022-08-05T22:03:48.255Z,100262.63
2022-08-05T22:08:52.470Z,100261.69
2022-08-05T22:14:05.924Z,100260.06
2022-08-05T22:20:00.832Z,100256.56
2022-08-05T22:25:01.512Z,100259.13
2022-08-05T22:30:06.290Z,100262.56
2022-08-05T22:35:10.847Z,100255.69
2022-08-05T22:40:16.800Z,100255.69
2022-08-05T22:45:23.464Z,100254.88
2022-08-05T22:50:27.813Z,100259.28
2022-08-05T22:55:37.107Z,100261.22
2022-08-05T23:00:53.574Z,100246.84
2022-08-05T23:06:00.215Z,100254.56
2022-08-05T23:11:03.989Z,100253.78
2022-08-05T23:16:06.919Z,100252.16
2022-08-05T23:21:11.605Z,100258.25
2022-08-05T23:26:20.389Z,100249.75
2022-08-05T23:31:24.452Z,100255.81
2022-08-05T23:36:28.523Z,100257.59
2022-08-05T23:41:45.075Z,100254.19
2022-08-05T23:46:51.569Z,100251.63
2022-08-05T23:52:12.632Z,100250.84
2022-08-05T23:57:19.093Z,100255.22
